F/V Roger Christian3 — FUFL — position and weather

sailwx.info

Track history (hours):
 
Tides and Currents Weather Stations Pressure Air Temp Water Temp Dewpoint Dewpoint Depression Visibility Wind Speed Wind Dir Waves Ship Positions

F/V Roger Christian3

Last reported at 2015-Jan-28 13:29 UTC. Time now 2015-Jan-28 14:19 UTC.
Position N 43°08' E 003°49'.

Length 24 m; draft 4 m.

Type: Fishing. MMSI: 228173800.

Date/timePositionNaut miles runAvg speedWind from/ knotsBaromVisibWave heightAir tempDewpointWater temp
2015-Jan-28 13:29N 43°08' E 003°49'5 4.7
2015-Jan-28 12:30N 43°03' E 003°50'4 3.3
2015-Jan-28 11:13N 42°59' E 003°52'3 3.3
2015-Jan-28 10:11N 42°60' E 003°57'4 4.1
2015-Jan-28 09:11N 42°60' E 004°02'4 4.2
2015-Jan-28 08:13N 42°59' E 004°08'31 2.0
2015-Jan-27 17:12N 43°24' E 003°42'18 4.7
2015-Jan-27 13:28N 43°08' E 003°54'4 4.3
2015-Jan-27 12:33N 43°05' E 003°57'4 4.2
2015-Jan-27 11:33N 43°02' E 004°00'3 3.0
2015-Jan-27 10:25N 42°60' E 004°04'5 4.4
2015-Jan-27 09:19N 42°60' E 004°11'6 4.8
2015-Jan-27 08:06N 42°60' E 004°19'18 4.0
2015-Jan-27 03:33N 43°12' E 003°59'10 9.8
2015-Jan-27 02:33N 43°18' E 003°49'8 0.7
2015-Jan-26 14:27N 43°24' E 003°42'0 0.3
2015-Jan-26 13:29N 43°24' E 003°42'0 0.0
2015-Jan-26 12:29N 43°24' E 003°42'0 0.0
2015-Jan-26 11:29N 43°24' E 003°42'0 0.0
2015-Jan-26 10:29N 43°24' E 003°42'5 5.1
2015-Jan-26 09:28N 43°20' E 003°47'1010.6
2015-Jan-26 08:29N 43°14' E 003°58'10 9.9
2015-Jan-26 07:29N 43°08' E 004°09'1 1.0
2015-Jan-26 06:29N 43°07' E 004°08'4 4.2
2015-Jan-26 05:28N 43°08' E 004°03'4 4.1
2015-Jan-26 04:28N 43°10' E 003°58'4 4.4
2015-Jan-26 03:28N 43°13' E 003°53'7 7.3
2015-Jan-26 02:28N 43°19' E 003°47'6 6.0
2015-Jan-26 01:24N 43°24' E 003°42'0 0.0
2015-Jan-26 00:26N 43°24' E 003°42'0 0.0
2015-Jan-25 23:26N 43°24' E 003°42'0 0.0
2015-Jan-25 11:13N 43°24' E 003°42'0 0.0
2015-Jan-24 00:27N 43°24' E 003°42'0 0.0
2015-Jan-23 23:07N 43°24' E 003°42'0 0.0
2015-Jan-23 22:26N 43°24' E 003°42'0 0.0
2015-Jan-23 20:26N 43°24' E 003°42'0 0.0
2015-Jan-23 19:26N 43°24' E 003°42'0 0.0
2015-Jan-23 18:07N 43°24' E 003°42'0 0.5
2015-Jan-23 17:25N 43°24' E 003°42'0 0.4
2015-Jan-23 16:21N 43°24' E 003°42'5 4.7
2015-Jan-23 15:23N 43°20' E 003°44'12 3.1
2015-Jan-23 11:21N 43°16' E 004°00'5 4.1
2015-Jan-23 10:10N 43°14' E 004°06'3 4.3
2015-Jan-23 09:33N 43°14' E 004°10'5 4.5
2015-Jan-23 08:33N 43°12' E 004°16'2 2.5
2015-Jan-23 07:33N 43°11' E 004°19'4 3.7
2015-Jan-23 06:29N 43°13' E 004°14'4 4.2
2015-Jan-23 05:27N 43°15' E 004°09'22 1.7
2015-Jan-22 16:31N 43°24' E 003°42'8 5.8
2015-Jan-22 15:04N 43°16' E 003°43'711.1
2015-Jan-22 14:28N 43°09' E 003°44'4 3.4
2015-Jan-22 13:24N 43°05' E 003°45'4 4.4
2015-Jan-22 12:33N 43°02' E 003°46'6 4.3
2015-Jan-22 11:11N 42°58' E 003°53'2 2.3
2015-Jan-22 10:25N 42°59' E 003°55'4 4.5
2015-Jan-22 09:33N 42°59' E 004°00'5 4.5
2015-Jan-22 08:33N 42°59' E 004°06'4 3.8
2015-Jan-22 07:32N 42°58' E 004°11'4 3.8
2015-Jan-22 06:31N 42°60' E 004°07'4 4.6
2015-Jan-22 05:33N 43°00' E 004°00'4 4.3
2015-Jan-22 04:33N 43°03' E 003°56'5 4.5
2015-Jan-22 03:33N 43°06' E 003°52'1211.4
2015-Jan-22 02:32N 43°17' E 003°46'8 7.9
2015-Jan-22 01:34N 43°24' E 003°42'0 0.0
2015-Jan-21 16:33N 43°24' E 003°42'5 3.6
2015-Jan-21 15:04N 43°19' E 003°43'14 8.3
2015-Jan-21 13:22N 43°05' E 003°47'4 3.9
2015-Jan-21 12:28N 43°02' E 003°48'4 3.8
2015-Jan-21 11:33N 42°59' E 003°51'2 2.4
2015-Jan-21 10:33N 42°59' E 003°54'4 4.5
2015-Jan-21 09:33N 42°59' E 003°60'5 4.5
2015-Jan-21 08:22N 42°59' E 004°07'3 3.2
2015-Jan-21 07:27N 42°59' E 004°11'4 3.6
2015-Jan-21 06:18N 43°00' E 004°06'12 6.1
2015-Jan-21 04:22N 43°07' E 003°52'19 2.1
2015-Jan-20 19:25N 43°24' E 003°42'0 0.0
2015-Jan-20 17:09N 43°24' E 003°42'0 0.5
2015-Jan-20 16:33N 43°24' E 003°42'4 3.9
2015-Jan-20 15:33N 43°20' E 003°44'1311.7
2015-Jan-20 14:25N 43°08' E 003°51'5 5.1
2015-Jan-20 13:22N 43°03' E 003°55'4 4.8
2015-Jan-20 12:30N 42°60' E 003°57'4 4.2
2015-Jan-20 11:32N 42°59' E 004°02'4 3.0
2015-Jan-20 10:18N 42°59' E 004°07'3 4.6
2015-Jan-20 09:33N 42°59' E 004°12'6 4.4
2015-Jan-20 08:11N 42°57' E 004°20'1 0.9
2015-Jan-20 07:21N 42°56' E 004°20'6 4.4
2015-Jan-20 06:04N 43°01' E 004°16'34 2.5
2015-Jan-19 16:24N 43°24' E 003°42'11 8.8
2015-Jan-19 15:11N 43°15' E 003°50'3 3.7
2015-Jan-19 14:22N 43°13' E 003°53'8 4.3
2015-Jan-19 12:32N 43°06' E 003°59'4 4.3
2015-Jan-19 11:32N 43°02' E 004°01'4 3.5
2015-Jan-19 10:29N 43°01' E 004°06'5 4.2
2015-Jan-19 09:17N 43°00' E 004°13'4 4.2
2015-Jan-19 08:21N 42°58' E 004°17'2 1.7
2015-Jan-19 07:27N 42°57' E 004°19'5 4.4
2015-Jan-19 06:18N 43°02' E 004°16'33 4.9
2015-Jan-18 23:26N 43°24' E 003°42'  
Track history (hours):
 
Tides and Currents Weather Stations Pressure Air Temp Water Temp Dewpoint Dewpoint Depression Visibility Wind Speed Wind Dir Waves Ship Positions

F/V Roger Christian3

Last reported at 2015-Jan-28 13:29 UTC. Time now 2015-Jan-28 14:19 UTC.
Position N 43°08' E 003°49'.

Length 24 m; draft 4 m.

Type: Fishing. MMSI: 228173800.

Date/timePositionNaut miles runAvg speedWind from/ knotsBaromVisibWave heightAir tempDewpointWater temp
2015-Jan-28 13:29N 43°08' E 003°49'5 4.7
2015-Jan-28 12:30N 43°03' E 003°50'4 3.3
2015-Jan-28 11:13N 42°59' E 003°52'3 3.3
2015-Jan-28 10:11N 42°60' E 003°57'4 4.1
2015-Jan-28 09:11N 42°60' E 004°02'4 4.2
2015-Jan-28 08:13N 42°59' E 004°08'31 2.0
2015-Jan-27 17:12N 43°24' E 003°42'18 4.7
2015-Jan-27 13:28N 43°08' E 003°54'4 4.3
2015-Jan-27 12:33N 43°05' E 003°57'4 4.2
2015-Jan-27 11:33N 43°02' E 004°00'3 3.0
2015-Jan-27 10:25N 42°60' E 004°04'5 4.4
2015-Jan-27 09:19N 42°60' E 004°11'6 4.8
2015-Jan-27 08:06N 42°60' E 004°19'18 4.0
2015-Jan-27 03:33N 43°12' E 003°59'10 9.8
2015-Jan-27 02:33N 43°18' E 003°49'8 0.7
2015-Jan-26 14:27N 43°24' E 003°42'0 0.3
2015-Jan-26 13:29N 43°24' E 003°42'0 0.0
2015-Jan-26 12:29N 43°24' E 003°42'0 0.0
2015-Jan-26 11:29N 43°24' E 003°42'0 0.0
2015-Jan-26 10:29N 43°24' E 003°42'5 5.1
2015-Jan-26 09:28N 43°20' E 003°47'1010.6
2015-Jan-26 08:29N 43°14' E 003°58'10 9.9
2015-Jan-26 07:29N 43°08' E 004°09'1 1.0
2015-Jan-26 06:29N 43°07' E 004°08'4 4.2
2015-Jan-26 05:28N 43°08' E 004°03'4 4.1
2015-Jan-26 04:28N 43°10' E 003°58'4 4.4
2015-Jan-26 03:28N 43°13' E 003°53'7 7.3
2015-Jan-26 02:28N 43°19' E 003°47'6 6.0
2015-Jan-26 01:24N 43°24' E 003°42'0 0.0
2015-Jan-26 00:26N 43°24' E 003°42'0 0.0
2015-Jan-25 23:26N 43°24' E 003°42'0 0.0
2015-Jan-25 11:13N 43°24' E 003°42'0 0.0
2015-Jan-24 00:27N 43°24' E 003°42'0 0.0
2015-Jan-23 23:07N 43°24' E 003°42'0 0.0
2015-Jan-23 22:26N 43°24' E 003°42'0 0.0
2015-Jan-23 20:26N 43°24' E 003°42'0 0.0
2015-Jan-23 19:26N 43°24' E 003°42'0 0.0
2015-Jan-23 18:07N 43°24' E 003°42'0 0.5
2015-Jan-23 17:25N 43°24' E 003°42'0 0.4
2015-Jan-23 16:21N 43°24' E 003°42'5 4.7
2015-Jan-23 15:23N 43°20' E 003°44'12 3.1
2015-Jan-23 11:21N 43°16' E 004°00'5 4.1
2015-Jan-23 10:10N 43°14' E 004°06'3 4.3
2015-Jan-23 09:33N 43°14' E 004°10'5 4.5
2015-Jan-23 08:33N 43°12' E 004°16'2 2.5
2015-Jan-23 07:33N 43°11' E 004°19'4 3.7
2015-Jan-23 06:29N 43°13' E 004°14'4 4.2
2015-Jan-23 05:27N 43°15' E 004°09'22 1.7
2015-Jan-22 16:31N 43°24' E 003°42'8 5.8
2015-Jan-22 15:04N 43°16' E 003°43'711.1
2015-Jan-22 14:28N 43°09' E 003°44'4 3.4
2015-Jan-22 13:24N 43°05' E 003°45'4 4.4
2015-Jan-22 12:33N 43°02' E 003°46'6 4.3
2015-Jan-22 11:11N 42°58' E 003°53'2 2.3
2015-Jan-22 10:25N 42°59' E 003°55'4 4.5
2015-Jan-22 09:33N 42°59' E 004°00'5 4.5
2015-Jan-22 08:33N 42°59' E 004°06'4 3.8
2015-Jan-22 07:32N 42°58' E 004°11'4 3.8
2015-Jan-22 06:31N 42°60' E 004°07'4 4.6
2015-Jan-22 05:33N 43°00' E 004°00'4 4.3
2015-Jan-22 04:33N 43°03' E 003°56'5 4.5
2015-Jan-22 03:33N 43°06' E 003°52'1211.4
2015-Jan-22 02:32N 43°17' E 003°46'8 7.9
2015-Jan-22 01:34N 43°24' E 003°42'0 0.0
2015-Jan-21 16:33N 43°24' E 003°42'5 3.6
2015-Jan-21 15:04N 43°19' E 003°43'14 8.3
2015-Jan-21 13:22N 43°05' E 003°47'4 3.9
2015-Jan-21 12:28N 43°02' E 003°48'4 3.8
2015-Jan-21 11:33N 42°59' E 003°51'2 2.4
2015-Jan-21 10:33N 42°59' E 003°54'4 4.5
2015-Jan-21 09:33N 42°59' E 003°60'5 4.5
2015-Jan-21 08:22N 42°59' E 004°07'3 3.2
2015-Jan-21 07:27N 42°59' E 004°11'4 3.6
2015-Jan-21 06:18N 43°00' E 004°06'12 6.1
2015-Jan-21 04:22N 43°07' E 003°52'19 2.1
2015-Jan-20 19:25N 43°24' E 003°42'0 0.0
2015-Jan-20 17:09N 43°24' E 003°42'0 0.5
2015-Jan-20 16:33N 43°24' E 003°42'4 3.9
2015-Jan-20 15:33N 43°20' E 003°44'1311.7
2015-Jan-20 14:25N 43°08' E 003°51'5 5.1
2015-Jan-20 13:22N 43°03' E 003°55'4 4.8
2015-Jan-20 12:30N 42°60' E 003°57'4 4.2
2015-Jan-20 11:32N 42°59' E 004°02'4 3.0
2015-Jan-20 10:18N 42°59' E 004°07'3 4.6
2015-Jan-20 09:33N 42°59' E 004°12'6 4.4
2015-Jan-20 08:11N 42°57' E 004°20'1 0.9
2015-Jan-20 07:21N 42°56' E 004°20'6 4.4
2015-Jan-20 06:04N 43°01' E 004°16'34 2.5
2015-Jan-19 16:24N 43°24' E 003°42'11 8.8
2015-Jan-19 15:11N 43°15' E 003°50'3 3.7
2015-Jan-19 14:22N 43°13' E 003°53'8 4.3
2015-Jan-19 12:32N 43°06' E 003°59'4 4.3
2015-Jan-19 11:32N 43°02' E 004°01'4 3.5
2015-Jan-19 10:29N 43°01' E 004°06'5 4.2
2015-Jan-19 09:17N 43°00' E 004°13'4 4.2
2015-Jan-19 08:21N 42°58' E 004°17'2 1.7
2015-Jan-19 07:27N 42°57' E 004°19'5 4.4
2015-Jan-19 06:18N 43°02' E 004°16'33 4.9
2015-Jan-18 23:26N 43°24' E 003°42'  

Dump ship's entire track history